createdAt,value
2017-09-27T00:02:02.163Z,92.40
2017-09-27T00:05:13.149Z,93.00
2017-09-27T00:08:23.711Z,92.80
2017-09-27T00:11:33.917Z,93.30
2017-09-27T00:14:44.062Z,94.00
2017-09-27T00:17:55.065Z,93.40
2017-09-27T00:21:05.676Z,93.10
2017-09-27T00:24:16.779Z,93.10
2017-09-27T00:27:27.799Z,93.40
2017-09-27T00:30:38.283Z,93.40
2017-09-27T00:33:48.337Z,93.00
2017-09-27T00:36:59.753Z,93.70
2017-09-27T00:40:09.576Z,93.70
2017-09-27T00:43:20.066Z,93.50
2017-09-27T00:46:30.663Z,93.50
2017-09-27T00:49:41.943Z,93.50
2017-09-27T00:52:52.031Z,93.50
2017-09-27T00:56:02.336Z,93.80
2017-09-27T00:59:12.326Z,93.60
2017-09-27T01:02:23.512Z,94.40
2017-09-27T01:05:33.759Z,94.40
2017-09-27T01:08:44.511Z,94.40
2017-09-27T01:11:54.727Z,94.10
2017-09-27T01:15:05.520Z,94.00
2017-09-27T01:18:16.005Z,94.00
2017-09-27T01:21:25.569Z,94.40
2017-09-27T01:24:35.459Z,94.30
2017-09-27T01:27:45.502Z,94.10
2017-09-27T01:30:55.864Z,94.30
2017-09-27T01:34:06.137Z,94.60
2017-09-27T01:37:17.677Z,94.50
2017-09-27T01:40:28.327Z,94.60
2017-09-27T01:43:38.058Z,94.60
2017-09-27T01:46:49.070Z,95.30
2017-09-27T01:50:00.451Z,94.80
2017-09-27T01:53:12.081Z,95.10
2017-09-27T01:56:22.414Z,95.40
2017-09-27T01:59:32.750Z,95.50
2017-09-27T02:02:43.877Z,97.00
2017-09-27T02:05:54.279Z,97.00
2017-09-27T02:09:03.463Z,96.50
2017-09-27T02:12:14.590Z,95.60
2017-09-27T02:15:24.708Z,95.60
2017-09-27T02:18:34.701Z,95.50
2017-09-27T02:21:45.533Z,95.90
2017-09-27T02:24:56.496Z,96.10
2017-09-27T02:31:17.837Z,96.20
2017-09-27T02:34:28.812Z,96.00
2017-09-27T02:37:40.074Z,95.70
2017-09-27T02:40:50.452Z,96.00
2017-09-27T02:44:00.629Z,96.10
2017-09-27T02:47:10.819Z,96.00
2017-09-27T02:50:20.888Z,95.70
2017-09-27T02:53:31.270Z,95.80
2017-09-27T02:56:42.733Z,96.00
2017-09-27T02:59:52.932Z,95.90
2017-09-27T03:03:03.474Z,95.70
2017-09-27T03:06:13.681Z,95.80
2017-09-27T03:09:24.010Z,95.40
2017-09-27T03:12:34.575Z,95.50
2017-09-27T03:15:44.932Z,94.50
2017-09-27T03:18:54.848Z,95.10
2017-09-27T03:22:05.279Z,96.10
2017-09-27T03:25:15.803Z,96.10
2017-09-27T03:28:26.186Z,96.60
2017-09-27T03:31:36.277Z,96.30
2017-09-27T03:34:46.291Z,96.30
2017-09-27T03:37:56.490Z,95.90
2017-09-27T03:41:06.760Z,95.70
2017-09-27T03:44:16.735Z,94.90
2017-09-27T03:47:27.000Z,94.60
2017-09-27T03:50:36.913Z,94.90
2017-09-27T03:53:47.727Z,95.40
2017-09-27T03:56:57.737Z,95.10
2017-09-27T04:00:08.450Z,96.00
2017-09-27T04:03:19.394Z,96.00
2017-09-27T04:06:29.337Z,96.00
2017-09-27T04:09:39.152Z,95.70
2017-09-27T04:12:49.864Z,96.00
2017-09-27T04:16:00.509Z,95.70
2017-09-27T04:19:11.257Z,95.60
2017-09-27T04:22:22.019Z,95.80
2017-09-27T04:25:32.269Z,95.50
2017-09-27T04:28:42.928Z,95.70
2017-09-27T04:31:55.496Z,95.50
2017-09-27T04:35:05.470Z,95.80
2017-09-27T04:38:16.116Z,95.60
2017-09-27T04:41:26.649Z,95.60
2017-09-27T04:44:36.378Z,95.80
2017-09-27T04:47:47.171Z,95.50
2017-09-27T04:50:57.370Z,95.50
2017-09-27T04:54:08.207Z,96.00
2017-09-27T04:57:18.946Z,95.90
2017-09-27T05:00:30.078Z,96.30
2017-09-27T05:03:42.479Z,96.50
2017-09-27T05:06:53.146Z,96.70
2017-09-27T05:10:03.165Z,97.50
2017-09-27T05:13:13.560Z,98.50
2017-09-27T05:16:24.154Z,98.70
2017-09-27T05:19:34.702Z,98.60
2017-09-27T05:22:44.964Z,98.50
2017-09-27T05:25:54.852Z,98.30
2017-09-27T05:29:05.010Z,96.60
2017-09-27T05:32:15.454Z,96.20
2017-09-27T05:35:25.481Z,96.20
2017-09-27T05:38:36.050Z,96.10
2017-09-27T05:41:46.788Z,95.90
2017-09-27T05:44:57.075Z,96.00
2017-09-27T05:48:07.097Z,95.90
2017-09-27T05:51:17.221Z,96.50
2017-09-27T05:54:27.425Z,96.50
2017-09-27T05:57:38.474Z,96.30
2017-09-27T06:00:48.841Z,96.30
2017-09-27T06:03:58.884Z,97.40
2017-09-27T06:07:08.879Z,97.40
2017-09-27T06:10:18.552Z,97.20
2017-09-27T06:13:29.360Z,96.60
2017-09-27T06:16:39.565Z,96.10
2017-09-27T06:19:51.522Z,96.20
2017-09-27T06:23:02.121Z,96.20
2017-09-27T06:26:12.840Z,95.90
2017-09-27T06:29:23.218Z,95.90
2017-09-27T06:32:33.540Z,96.10
2017-09-27T06:35:44.489Z,96.00
2017-09-27T06:38:55.126Z,96.70
2017-09-27T06:42:05.952Z,96.60
2017-09-27T06:45:16.201Z,97.00
2017-09-27T06:48:26.877Z,98.00
2017-09-27T06:51:37.639Z,97.30
2017-09-27T06:54:47.890Z,97.50
2017-09-27T06:57:57.947Z,98.30
2017-09-27T07:01:07.850Z,98.10
2017-09-27T07:04:17.843Z,97.40
2017-09-27T07:07:27.720Z,97.60
2017-09-27T07:10:38.547Z,97.70
2017-09-27T07:13:48.553Z,97.60
2017-09-27T07:16:58.439Z,97.60
2017-09-27T07:20:08.560Z,97.60
2017-09-27T07:23:19.542Z,96.80
2017-09-27T07:26:29.938Z,96.80
2017-09-27T07:29:40.174Z,97.40
2017-09-27T07:32:50.784Z,98.10
2017-09-27T07:36:01.610Z,98.00
2017-09-27T07:42:23.225Z,98.40
2017-09-27T07:45:33.092Z,98.00
2017-09-27T07:48:43.548Z,98.20
2017-09-27T07:51:54.188Z,98.20
2017-09-27T07:55:05.067Z,98.60
2017-09-27T08:01:27.012Z,99.00
2017-09-27T08:04:37.657Z,98.90
2017-09-27T08:07:47.972Z,98.90
2017-09-27T08:10:58.900Z,99.00
2017-09-27T08:14:09.731Z,99.00
2017-09-27T08:17:20.625Z,98.00
2017-09-27T08:20:30.778Z,97.90
2017-09-27T08:23:41.478Z,97.70
2017-09-27T08:26:51.809Z,97.70
2017-09-27T08:30:02.407Z,97.40
2017-09-27T08:33:12.595Z,97.40
2017-09-27T08:36:24.126Z,97.00
2017-09-27T08:39:34.137Z,97.20
2017-09-27T08:42:44.157Z,97.00
2017-09-27T08:45:54.148Z,99.90
2017-09-27T08:49:04.074Z,99.90
2017-09-27T08:52:15.087Z,99.90
2017-09-27T08:55:25.870Z,94.60
2017-09-27T08:58:36.174Z,94.40
2017-09-27T09:01:46.325Z,94.50
2017-09-27T09:04:57.474Z,93.30
2017-09-27T09:08:07.636Z,93.20
2017-09-27T09:11:17.972Z,93.00
2017-09-27T09:14:29.542Z,92.70
2017-09-27T09:17:39.495Z,92.60
2017-09-27T09:20:49.936Z,92.70
2017-09-27T09:24:00.360Z,92.10
2017-09-27T09:27:11.004Z,92.50
2017-09-27T09:30:20.945Z,90.90
2017-09-27T09:33:31.008Z,91.00
2017-09-27T09:36:41.205Z,90.00
2017-09-27T09:43:02.876Z,90.50
2017-09-27T09:46:13.248Z,88.80
2017-09-27T09:49:23.694Z,89.80
2017-09-27T09:52:33.815Z,88.50
2017-09-27T09:55:43.873Z,88.90
2017-09-27T09:58:54.168Z,88.10
2017-09-27T10:02:04.837Z,87.40
2017-09-27T10:05:15.175Z,88.30
2017-09-27T10:08:25.066Z,87.50
2017-09-27T10:11:35.204Z,86.50
2017-09-27T10:14:45.986Z,85.90
2017-09-27T10:17:56.663Z,85.50
2017-09-27T10:21:06.707Z,85.10
2017-09-27T10:24:17.064Z,87.10
2017-09-27T10:27:27.050Z,86.60
2017-09-27T10:30:37.169Z,85.90
2017-09-27T10:33:47.273Z,83.90
2017-09-27T10:36:57.162Z,86.00
2017-09-27T10:40:08.153Z,82.50
2017-09-27T10:43:19.231Z,83.40
2017-09-27T10:46:29.568Z,83.30
2017-09-27T10:49:40.457Z,82.30
2017-09-27T10:52:50.446Z,82.40
2017-09-27T10:56:01.270Z,80.80
2017-09-27T10:59:12.697Z,81.90
2017-09-27T11:02:22.967Z,81.90
2017-09-27T11:05:33.135Z,82.30
2017-09-27T11:08:43.866Z,82.20
2017-09-27T11:11:54.138Z,82.50
2017-09-27T11:15:04.624Z,81.30
2017-09-27T11:18:14.703Z,79.90
2017-09-27T11:21:25.037Z,80.10
2017-09-27T11:24:35.454Z,80.50
2017-09-27T11:27:45.836Z,81.80
2017-09-27T11:30:56.386Z,80.80
2017-09-27T11:34:06.539Z,82.80
2017-09-27T11:37:16.653Z,83.60
2017-09-27T11:40:26.934Z,81.10
2017-09-27T11:43:37.940Z,82.50
2017-09-27T11:46:48.869Z,80.10
2017-09-27T11:49:59.277Z,80.10
2017-09-27T11:53:09.128Z,80.20
2017-09-27T11:56:18.998Z,81.60
2017-09-27T12:02:39.996Z,78.50
2017-09-27T12:05:50.867Z,78.30
2017-09-27T12:09:01.318Z,78.20
2017-09-27T12:12:11.109Z,78.10
2017-09-27T12:15:21.355Z,78.50
2017-09-27T12:18:31.496Z,77.10
2017-09-27T12:21:42.061Z,77.80
2017-09-27T12:24:51.941Z,75.80
2017-09-27T12:28:01.810Z,77.20
2017-09-27T12:34:23.621Z,75.70
2017-09-27T12:37:34.132Z,76.90
2017-09-27T12:40:45.914Z,78.20
2017-09-27T12:43:56.605Z,78.60
2017-09-27T12:47:08.281Z,78.20
2017-09-27T12:50:18.580Z,78.10
2017-09-27T12:53:28.579Z,79.70
2017-09-27T12:56:38.882Z,79.20
2017-09-27T12:59:49.925Z,79.40
2017-09-27T13:03:01.160Z,77.20
2017-09-27T13:06:13.241Z,77.20
2017-09-27T13:09:23.895Z,77.30
2017-09-27T13:12:34.039Z,79.70
2017-09-27T13:15:50.273Z,79.60
2017-09-27T13:19:01.996Z,80.00
2017-09-27T13:22:18.660Z,74.80
2017-09-27T13:25:30.043Z,74.80
2017-09-27T13:28:41.141Z,75.20
2017-09-27T13:31:51.127Z,76.50
2017-09-27T13:35:02.435Z,76.10
2017-09-27T13:38:14.366Z,75.20
2017-09-27T13:41:25.782Z,74.80
2017-09-27T13:44:36.466Z,72.00
2017-09-27T13:47:49.645Z,74.60
2017-09-27T13:51:00.428Z,74.30
2017-09-27T13:54:10.326Z,73.00
2017-09-27T13:57:20.872Z,73.80
2017-09-27T14:00:30.674Z,74.10
2017-09-27T14:03:41.314Z,73.30
2017-09-27T14:06:52.451Z,76.10
2017-09-27T14:10:02.549Z,76.10
2017-09-27T14:13:12.509Z,76.10
2017-09-27T14:16:22.453Z,73.40
2017-09-27T14:19:33.241Z,73.90
2017-09-27T14:22:43.928Z,73.00
2017-09-27T14:25:54.347Z,73.00
2017-09-27T14:29:04.600Z,76.10
2017-09-27T14:32:14.445Z,77.10
2017-09-27T14:35:24.561Z,77.20
2017-09-27T14:38:34.682Z,76.30
2017-09-27T14:41:45.179Z,76.40
2017-09-27T14:44:56.673Z,77.70
2017-09-27T14:48:07.578Z,77.70
2017-09-27T14:51:18.308Z,77.60
2017-09-27T14:54:28.357Z,76.60
2017-09-27T14:57:38.773Z,75.60
2017-09-27T15:00:49.415Z,76.20
2017-09-27T15:03:59.989Z,77.40
2017-09-27T15:07:09.939Z,75.50
2017-09-27T15:10:20.219Z,73.70
2017-09-27T15:13:30.168Z,72.80
2017-09-27T15:16:40.560Z,74.60
2017-09-27T15:19:50.607Z,73.10
2017-09-27T15:23:01.182Z,74.50
2017-09-27T15:26:11.805Z,73.80
2017-09-27T15:29:22.122Z,71.60
2017-09-27T15:32:33.092Z,72.10
2017-09-27T15:35:43.846Z,72.00
2017-09-27T15:38:54.703Z,73.80
2017-09-27T15:42:04.546Z,73.70
2017-09-27T15:45:15.358Z,74.60
2017-09-27T15:48:25.687Z,73.90
2017-09-27T15:51:36.574Z,74.40
2017-09-27T15:54:46.870Z,74.40
2017-09-27T15:57:57.909Z,76.60
2017-09-27T16:01:08.497Z,76.60
2017-09-27T16:04:19.310Z,76.50
2017-09-27T16:07:30.044Z,76.50
2017-09-27T16:10:41.297Z,77.40
2017-09-27T16:13:52.000Z,77.00
2017-09-27T16:17:02.622Z,77.90
2017-09-27T16:20:12.913Z,77.40
2017-09-27T16:23:23.162Z,77.90
2017-09-27T16:26:33.345Z,78.40
2017-09-27T16:29:44.137Z,79.00
2017-09-27T16:32:55.448Z,81.50
2017-09-27T16:36:06.144Z,80.70
2017-09-27T16:39:16.912Z,81.40
2017-09-27T16:42:27.729Z,81.90
2017-09-27T16:45:37.668Z,82.10
2017-09-27T16:48:48.506Z,83.10
2017-09-27T16:51:59.089Z,82.90
2017-09-27T16:55:09.191Z,83.60
2017-09-27T16:58:19.021Z,84.30
2017-09-27T17:01:29.027Z,84.80
2017-09-27T17:04:39.326Z,85.20
2017-09-27T17:07:49.636Z,85.00
2017-09-27T17:10:59.457Z,85.10
2017-09-27T17:14:09.521Z,85.00
2017-09-27T17:17:20.326Z,85.70
2017-09-27T17:20:30.663Z,85.80
2017-09-27T17:23:44.189Z,86.10
2017-09-27T17:26:55.070Z,86.30
2017-09-27T17:30:05.226Z,86.50
2017-09-27T17:33:20.143Z,86.90
2017-09-27T17:36:33.625Z,87.10
2017-09-27T17:39:44.773Z,87.00
2017-09-27T17:42:54.880Z,87.00
2017-09-27T17:46:04.865Z,87.30
2017-09-27T17:49:15.497Z,88.10
2017-09-27T17:52:25.828Z,88.10
2017-09-27T17:55:35.796Z,88.10
2017-09-27T17:58:45.737Z,88.90
2017-09-27T18:01:55.784Z,89.10
2017-09-27T18:08:52.896Z,89.10
2017-09-27T18:12:03.028Z,89.00
2017-09-27T18:18:52.266Z,89.40
2017-09-27T18:22:02.384Z,89.50
2017-09-27T18:25:12.188Z,89.70
2017-09-27T18:28:23.073Z,89.80
2017-09-27T18:31:33.783Z,89.80
2017-09-27T18:34:44.327Z,90.00
2017-09-27T18:37:54.582Z,90.00
2017-09-27T18:41:05.605Z,90.00
2017-09-27T18:44:16.263Z,90.00
2017-09-27T18:47:26.988Z,90.40
2017-09-27T18:50:37.408Z,90.00
2017-09-27T18:53:47.302Z,90.10
2017-09-27T18:56:57.421Z,90.30
2017-09-27T19:00:07.494Z,90.30
2017-09-27T19:03:17.792Z,90.60
2017-09-27T19:06:27.841Z,90.70
2017-09-27T19:09:38.791Z,90.80
2017-09-27T19:12:49.574Z,91.20
2017-09-27T19:15:59.926Z,91.20
2017-09-27T19:19:09.985Z,91.10
2017-09-27T19:22:20.988Z,91.30
2017-09-27T19:25:30.873Z,91.30
2017-09-27T19:28:41.848Z,91.50
2017-09-27T19:31:53.069Z,91.50
2017-09-27T19:35:04.009Z,91.60
2017-09-27T19:38:14.362Z,91.60
2017-09-27T19:41:25.076Z,91.80
2017-09-27T19:44:35.984Z,91.80
2017-09-27T19:47:46.160Z,91.90
2017-09-27T19:50:57.147Z,92.40
2017-09-27T19:54:08.214Z,92.20
2017-09-27T19:57:19.369Z,92.50
2017-09-27T20:00:29.731Z,92.50
2017-09-27T20:03:39.561Z,92.70
2017-09-27T20:06:49.741Z,92.80
2017-09-27T20:10:00.561Z,93.10
2017-09-27T20:13:10.616Z,92.80
2017-09-27T20:16:20.624Z,92.80
2017-09-27T20:19:31.462Z,94.10
2017-09-27T20:25:52.755Z,99.90
2017-09-27T20:29:02.720Z,92.50
2017-09-27T20:32:12.866Z,92.60
2017-09-27T20:35:23.330Z,92.80
2017-09-27T20:38:33.717Z,93.10
2017-09-27T20:41:44.792Z,93.60
2017-09-27T20:44:55.416Z,93.60
2017-09-27T20:48:06.058Z,94.00
2017-09-27T20:51:16.740Z,94.00
2017-09-27T20:54:26.764Z,94.10
2017-09-27T20:57:37.863Z,94.10
2017-09-27T21:00:48.253Z,94.00
2017-09-27T21:04:00.476Z,94.00
2017-09-27T21:07:12.413Z,94.00
2017-09-27T21:10:22.181Z,94.00
2017-09-27T21:13:32.532Z,93.80
2017-09-27T21:16:42.701Z,93.90
2017-09-27T21:19:52.472Z,93.70
2017-09-27T21:23:02.654Z,93.60
2017-09-27T21:26:13.003Z,93.50
2017-09-27T21:29:22.943Z,93.60
2017-09-27T21:32:33.903Z,93.50
2017-09-27T21:35:43.796Z,93.50
2017-09-27T21:38:53.728Z,93.70
2017-09-27T21:42:05.754Z,93.50
2017-09-27T21:45:15.983Z,93.60
2017-09-27T21:48:26.751Z,93.90
2017-09-27T21:51:38.006Z,93.60
2017-09-27T21:54:48.972Z,93.60
2017-09-27T21:57:59.134Z,93.60
2017-09-27T22:01:09.024Z,93.30
2017-09-27T22:04:19.844Z,93.00
2017-09-27T22:07:29.920Z,93.40
2017-09-27T22:10:40.320Z,92.90
2017-09-27T22:13:52.449Z,92.90
2017-09-27T22:17:02.495Z,93.10
2017-09-27T22:20:12.573Z,93.10
2017-09-27T22:23:22.664Z,93.40
2017-09-27T22:26:33.344Z,93.40
2017-09-27T22:29:43.966Z,93.30
2017-09-27T22:32:54.433Z,93.60
2017-09-27T22:39:17.083Z,93.50
2017-09-27T22:42:27.837Z,93.10
2017-09-27T22:45:38.693Z,93.50
2017-09-27T22:48:49.126Z,93.50
2017-09-27T22:52:00.178Z,93.80
2017-09-27T22:55:10.863Z,94.10
2017-09-27T22:58:21.065Z,94.00
2017-09-27T23:01:31.108Z,93.80
2017-09-27T23:04:41.989Z,93.50
2017-09-27T23:07:52.387Z,93.50
2017-09-27T23:11:02.460Z,93.90
2017-09-27T23:14:13.241Z,94.20
2017-09-27T23:17:23.091Z,94.30
2017-09-27T23:20:33.139Z,94.60
2017-09-27T23:23:43.578Z,94.50
2017-09-27T23:26:53.226Z,93.90
2017-09-27T23:30:03.587Z,93.70
2017-09-27T23:33:14.436Z,93.30
2017-09-27T23:36:24.790Z,93.20
2017-09-27T23:39:34.881Z,93.10
2017-09-27T23:42:45.446Z,93.30
2017-09-27T23:45:55.584Z,93.20
2017-09-27T23:49:06.254Z,93.70
2017-09-27T23:52:17.252Z,93.40
2017-09-27T23:55:28.475Z,93.40
2017-09-27T23:58:38.724Z,93.40
